createdAt,value
2017-12-06T00:00:20.037Z,4.80
2017-12-06T00:02:48.303Z,4.80
2017-12-06T00:05:15.799Z,4.80
2017-12-06T00:07:43.427Z,4.80
2017-12-06T00:10:11.091Z,4.80
2017-12-06T00:12:44.159Z,4.80
2017-12-06T00:15:17.378Z,4.80
2017-12-06T00:17:45.049Z,4.70
2017-12-06T00:20:12.563Z,4.70
2017-12-06T00:22:40.065Z,4.70
2017-12-06T00:25:08.338Z,4.70
2017-12-06T00:27:35.820Z,4.70
2017-12-06T00:30:03.312Z,4.70
2017-12-06T00:32:30.970Z,4.70
2017-12-06T00:34:58.489Z,4.70
2017-12-06T00:37:26.707Z,4.80
2017-12-06T00:39:54.224Z,4.80
2017-12-06T00:42:22.523Z,4.80
2017-12-06T00:44:50.014Z,4.80
2017-12-06T00:47:18.291Z,4.80
2017-12-06T00:49:45.773Z,4.80
2017-12-06T00:52:13.283Z,4.70
2017-12-06T00:54:40.789Z,4.60
2017-12-06T00:57:09.043Z,4.60
2017-12-06T00:59:37.365Z,4.80
2017-12-06T01:02:04.877Z,4.60
2017-12-06T01:04:32.414Z,4.70
2017-12-06T01:06:59.962Z,4.70
2017-12-06T01:09:27.476Z,4.70
2017-12-06T01:11:55.191Z,4.70
2017-12-06T01:14:22.811Z,4.70
2017-12-06T01:16:51.187Z,4.70
2017-12-06T01:19:18.687Z,4.70
2017-12-06T01:21:46.328Z,4.70
2017-12-06T01:24:13.809Z,4.70
2017-12-06T01:26:41.331Z,4.70
2017-12-06T01:29:08.806Z,4.60
2017-12-06T01:31:36.407Z,4.60
2017-12-06T01:34:04.648Z,4.60
2017-12-06T01:36:32.212Z,4.60
2017-12-06T01:38:59.710Z,4.60
2017-12-06T01:41:27.201Z,4.70
2017-12-06T01:43:56.128Z,4.50
2017-12-06T01:46:24.428Z,4.60
2017-12-06T01:48:51.913Z,4.60
2017-12-06T01:51:19.390Z,4.60
2017-12-06T01:53:47.010Z,4.60
2017-12-06T01:56:14.622Z,4.60
2017-12-06T01:58:42.108Z,4.60
2017-12-06T02:01:09.713Z,4.60
2017-12-06T02:03:37.184Z,4.70
2017-12-06T02:06:05.451Z,4.60
2017-12-06T02:08:32.948Z,4.60
2017-12-06T02:11:01.181Z,4.60
2017-12-06T02:13:28.877Z,4.60
2017-12-06T02:15:57.258Z,4.60
2017-12-06T02:18:26.143Z,4.60
2017-12-06T02:20:53.722Z,4.60
2017-12-06T02:23:21.224Z,4.50
2017-12-06T02:25:48.709Z,4.50
2017-12-06T02:28:17.008Z,4.50
2017-12-06T02:30:44.588Z,4.50
2017-12-06T02:33:12.679Z,4.50
2017-12-06T02:35:40.186Z,4.50
2017-12-06T02:38:07.673Z,4.50
2017-12-06T02:40:46.884Z,4.50
2017-12-06T02:43:26.151Z,4.60
2017-12-06T02:45:53.638Z,4.50
2017-12-06T02:48:21.182Z,4.50
2017-12-06T02:50:49.451Z,4.40
2017-12-06T02:53:17.780Z,4.40
2017-12-06T02:55:46.022Z,4.40
2017-12-06T02:58:13.525Z,4.40
2017-12-06T03:00:41.013Z,4.50
2017-12-06T03:03:08.489Z,4.50
2017-12-06T03:05:35.996Z,4.50
2017-12-06T03:08:03.480Z,4.20
2017-12-06T03:10:30.949Z,4.40
2017-12-06T03:12:58.432Z,4.30
2017-12-06T03:15:25.907Z,4.40
2017-12-06T03:17:53.390Z,4.50
2017-12-06T03:20:20.884Z,4.40
2017-12-06T03:22:48.359Z,4.40
2017-12-06T03:25:15.845Z,4.40
2017-12-06T03:27:43.356Z,4.40
2017-12-06T03:30:10.876Z,4.40
2017-12-06T03:32:38.376Z,4.40
2017-12-06T03:35:05.861Z,4.40
2017-12-06T03:37:34.092Z,4.30
2017-12-06T03:40:01.600Z,4.30
2017-12-06T03:42:29.346Z,4.30
2017-12-06T03:44:57.136Z,4.30
2017-12-06T03:47:24.633Z,4.30
2017-12-06T03:49:52.120Z,4.30
2017-12-06T03:52:19.624Z,4.20
2017-12-06T03:54:47.124Z,4.20
2017-12-06T03:57:15.404Z,4.20
2017-12-06T03:59:42.911Z,4.10
2017-12-06T04:02:11.151Z,4.20
2017-12-06T04:04:38.620Z,4.20
2017-12-06T04:07:06.126Z,4.20
2017-12-06T04:09:33.618Z,4.00
2017-12-06T04:12:01.236Z,3.90
2017-12-06T04:14:28.704Z,3.90
2017-12-06T04:16:56.982Z,3.80
2017-12-06T04:19:24.467Z,3.80
2017-12-06T04:21:51.954Z,3.80
2017-12-06T04:24:19.455Z,3.70
2017-12-06T04:26:47.704Z,3.70
2017-12-06T04:29:15.943Z,3.70
2017-12-06T04:31:43.437Z,3.70
2017-12-06T04:34:11.691Z,3.70
2017-12-06T04:36:39.946Z,3.70
2017-12-06T04:39:07.440Z,3.60
2017-12-06T04:41:34.929Z,3.60
2017-12-06T04:44:02.406Z,3.60
2017-12-06T04:46:29.899Z,3.60
2017-12-06T04:48:57.428Z,3.60
2017-12-06T04:51:24.920Z,3.50
2017-12-06T04:53:53.176Z,3.60
2017-12-06T04:56:20.680Z,3.60
2017-12-06T04:58:48.936Z,3.70
2017-12-06T05:01:16.442Z,3.70
2017-12-06T05:03:43.962Z,3.70
2017-12-06T05:06:12.221Z,3.80
2017-12-06T05:08:39.693Z,3.70
2017-12-06T05:11:07.945Z,3.80
2017-12-06T05:13:35.443Z,3.80
2017-12-06T05:16:03.690Z,3.80
2017-12-06T05:18:31.436Z,3.80
2017-12-06T05:20:59.858Z,3.80
2017-12-06T05:23:27.360Z,3.80
2017-12-06T05:25:55.674Z,3.90
2017-12-06T05:28:23.942Z,3.90
2017-12-06T05:30:51.457Z,3.80
2017-12-06T05:33:18.972Z,3.90
2017-12-06T05:35:46.469Z,4.00
2017-12-06T05:38:13.988Z,4.10
2017-12-06T05:40:41.464Z,4.10
2017-12-06T05:43:09.858Z,4.10
2017-12-06T05:45:37.341Z,4.10
2017-12-06T05:48:04.870Z,4.10
2017-12-06T05:50:33.264Z,4.20
2017-12-06T05:53:00.783Z,4.10
2017-12-06T05:55:28.277Z,4.10
2017-12-06T05:57:55.807Z,4.10
2017-12-06T06:00:23.312Z,4.10
2017-12-06T06:02:51.555Z,4.10
2017-12-06T06:05:19.037Z,4.10
2017-12-06T06:07:46.626Z,4.00
2017-12-06T06:10:14.122Z,4.10
2017-12-06T06:12:42.540Z,4.20
2017-12-06T06:15:10.548Z,4.10
2017-12-06T06:17:38.032Z,4.20
2017-12-06T06:20:08.907Z,4.20
2017-12-06T06:22:36.523Z,4.20
2017-12-06T06:25:05.166Z,4.10
2017-12-06T06:27:32.672Z,4.10
2017-12-06T06:30:00.174Z,4.20
2017-12-06T06:32:28.426Z,4.10
2017-12-06T06:34:56.858Z,4.10
2017-12-06T06:37:24.711Z,4.10
2017-12-06T06:39:53.033Z,4.10
2017-12-06T06:42:21.311Z,4.20
2017-12-06T06:44:49.070Z,4.10
2017-12-06T06:47:16.565Z,4.20
2017-12-06T06:49:44.148Z,4.10
2017-12-06T06:52:11.702Z,4.10
2017-12-06T06:54:39.967Z,4.10
2017-12-06T06:57:07.463Z,4.10
2017-12-06T06:59:35.040Z,4.20
2017-12-06T07:02:02.640Z,4.10
2017-12-06T07:04:30.121Z,4.20
2017-12-06T07:06:57.737Z,4.10
2017-12-06T07:09:25.295Z,4.20
2017-12-06T07:11:52.772Z,4.20
2017-12-06T07:14:20.283Z,4.20
2017-12-06T07:16:48.515Z,4.20
2017-12-06T07:19:16.030Z,4.20
2017-12-06T07:21:43.510Z,4.20
2017-12-06T07:24:11.851Z,4.30
2017-12-06T07:26:39.526Z,4.30
2017-12-06T07:29:07.165Z,4.30
2017-12-06T07:31:34.769Z,4.30
2017-12-06T07:34:03.074Z,4.40
2017-12-06T07:36:30.572Z,4.40
2017-12-06T07:38:58.051Z,4.40
2017-12-06T07:41:25.547Z,4.40
2017-12-06T07:43:53.049Z,4.40
2017-12-06T07:46:20.576Z,4.40
2017-12-06T07:48:48.102Z,4.50
2017-12-06T07:51:16.376Z,4.50
2017-12-06T07:53:43.866Z,4.50
2017-12-06T07:56:11.497Z,4.40
2017-12-06T07:58:44.549Z,4.40
2017-12-06T08:01:12.062Z,4.50
2017-12-06T08:03:39.610Z,4.50
2017-12-06T08:06:07.094Z,4.50
2017-12-06T08:08:34.579Z,4.60
2017-12-06T08:11:02.175Z,4.60
2017-12-06T08:13:29.683Z,4.70
2017-12-06T08:15:57.296Z,4.80
2017-12-06T08:18:24.782Z,4.80
2017-12-06T08:20:52.282Z,4.80
2017-12-06T08:23:19.772Z,4.90
2017-12-06T08:25:47.252Z,4.90
2017-12-06T08:28:14.752Z,4.90
2017-12-06T08:30:42.232Z,4.80
2017-12-06T08:33:09.801Z,4.90
2017-12-06T08:35:37.299Z,4.90
2017-12-06T08:38:05.042Z,5.10
2017-12-06T08:40:32.558Z,5.10
2017-12-06T08:43:00.808Z,5.10
2017-12-06T08:45:28.349Z,5.10
2017-12-06T08:47:56.618Z,5.10
2017-12-06T08:50:24.097Z,5.00
2017-12-06T08:52:51.658Z,5.00
2017-12-06T08:55:19.251Z,5.10
2017-12-06T08:57:47.505Z,5.20
2017-12-06T09:00:15.220Z,5.20
2017-12-06T09:02:42.717Z,5.20
2017-12-06T09:05:10.206Z,5.20
2017-12-06T09:07:37.743Z,5.30
2017-12-06T09:10:05.278Z,5.30
2017-12-06T09:12:32.761Z,5.40
2017-12-06T09:15:00.257Z,5.50
2017-12-06T09:17:27.755Z,5.50
2017-12-06T09:19:55.241Z,5.50
2017-12-06T09:22:22.772Z,5.60
2017-12-06T09:24:51.147Z,5.60
2017-12-06T09:27:18.629Z,5.60
2017-12-06T09:29:46.107Z,5.60
2017-12-06T09:32:13.720Z,5.70
2017-12-06T09:34:41.255Z,5.70
2017-12-06T09:37:08.747Z,5.80
2017-12-06T09:39:36.280Z,5.80
2017-12-06T09:42:03.781Z,5.80
2017-12-06T09:44:32.068Z,5.80
2017-12-06T09:46:59.537Z,5.80
2017-12-06T09:49:27.065Z,5.80
2017-12-06T09:51:55.315Z,5.90
2017-12-06T09:54:22.806Z,5.90
2017-12-06T09:56:50.328Z,5.90
2017-12-06T09:59:17.828Z,5.90
2017-12-06T10:01:45.335Z,5.90
2017-12-06T10:04:12.818Z,5.90
2017-12-06T10:06:40.363Z,5.70
2017-12-06T10:09:07.978Z,5.70
2017-12-06T10:11:35.657Z,5.80
2017-12-06T10:14:03.133Z,5.80
2017-12-06T10:16:30.716Z,5.80
2017-12-06T10:18:58.189Z,5.90
2017-12-06T10:21:25.730Z,5.90
2017-12-06T10:23:53.341Z,5.90
2017-12-06T10:26:21.608Z,5.80
2017-12-06T10:28:49.085Z,5.80
2017-12-06T10:31:16.571Z,5.90
2017-12-06T10:33:44.063Z,5.80
2017-12-06T10:36:12.467Z,6.10
2017-12-06T10:38:39.986Z,6.10
2017-12-06T10:41:07.849Z,6.00
2017-12-06T10:43:36.167Z,5.70
2017-12-06T10:46:04.652Z,5.70
2017-12-06T10:48:32.957Z,5.50
2017-12-06T10:51:00.472Z,5.50
2017-12-06T10:53:28.806Z,5.50
2017-12-06T10:55:56.529Z,5.50
2017-12-06T10:58:24.772Z,5.80
2017-12-06T11:00:53.083Z,5.90
2017-12-06T11:03:20.560Z,5.90
2017-12-06T11:05:48.036Z,6.00
2017-12-06T11:08:15.551Z,6.00
2017-12-06T11:10:43.018Z,6.10
2017-12-06T11:13:10.495Z,6.20
2017-12-06T11:15:39.045Z,6.10
2017-12-06T11:18:06.556Z,6.10
2017-12-06T11:20:34.784Z,6.00
2017-12-06T11:23:03.349Z,6.00
2017-12-06T11:25:30.829Z,5.90
2017-12-06T11:27:58.293Z,5.90
2017-12-06T11:30:25.824Z,5.90
2017-12-06T11:32:53.329Z,5.90
2017-12-06T11:35:20.818Z,5.90
2017-12-06T11:37:48.343Z,6.10
2017-12-06T11:40:15.866Z,6.10
2017-12-06T11:42:43.393Z,6.10
2017-12-06T11:45:10.890Z,6.10
2017-12-06T11:47:38.381Z,6.00
2017-12-06T11:50:05.866Z,5.80
2017-12-06T11:52:34.610Z,5.80
2017-12-06T11:55:02.161Z,5.90
2017-12-06T11:57:29.654Z,5.90
2017-12-06T11:59:57.937Z,6.00
2017-12-06T12:02:25.668Z,6.00
2017-12-06T12:04:53.151Z,5.80
2017-12-06T12:07:20.643Z,5.80
2017-12-06T12:09:48.906Z,5.60
2017-12-06T12:12:16.397Z,5.60
2017-12-06T12:14:43.967Z,5.60
2017-12-06T12:17:11.451Z,5.60
2017-12-06T12:19:38.953Z,5.60
2017-12-06T12:22:06.459Z,5.50
2017-12-06T12:24:35.010Z,5.60
2017-12-06T12:27:02.498Z,5.60
2017-12-06T12:29:30.776Z,5.60
2017-12-06T12:31:58.287Z,5.60
2017-12-06T12:34:25.800Z,5.60
2017-12-06T12:36:53.284Z,5.60
2017-12-06T12:39:21.647Z,5.60
2017-12-06T12:41:49.160Z,5.60
2017-12-06T12:44:17.038Z,5.60
2017-12-06T12:46:44.593Z,5.60
2017-12-06T12:49:12.080Z,5.60
2017-12-06T12:51:40.456Z,5.40
2017-12-06T12:54:07.964Z,5.40
2017-12-06T12:56:35.529Z,5.40
2017-12-06T12:59:03.051Z,5.30
2017-12-06T13:01:30.556Z,5.20
2017-12-06T13:03:58.817Z,5.30
2017-12-06T13:06:26.301Z,5.30
2017-12-06T13:08:54.559Z,5.20
2017-12-06T13:11:22.811Z,5.20
2017-12-06T13:13:50.326Z,5.20
2017-12-06T13:16:17.845Z,5.30
2017-12-06T13:18:45.483Z,5.30
2017-12-06T13:21:13.031Z,5.30
2017-12-06T13:23:41.505Z,5.30
2017-12-06T13:26:09.094Z,5.30
2017-12-06T13:28:36.684Z,5.30
2017-12-06T13:31:04.213Z,5.30
2017-12-06T13:33:31.757Z,5.30
2017-12-06T13:35:59.365Z,5.30
2017-12-06T13:38:27.648Z,5.40
2017-12-06T13:40:55.234Z,5.30
2017-12-06T13:43:22.717Z,5.40
2017-12-06T13:45:50.423Z,5.40
2017-12-06T13:48:18.756Z,5.50
2017-12-06T13:50:46.358Z,5.40
2017-12-06T13:53:13.866Z,5.40
2017-12-06T13:55:42.313Z,5.20
2017-12-06T13:58:09.830Z,5.00
2017-12-06T14:00:37.338Z,5.10
2017-12-06T14:03:04.833Z,5.00
2017-12-06T14:05:32.332Z,5.00
2017-12-06T14:08:00.564Z,5.00
2017-12-06T14:10:28.118Z,5.00
2017-12-06T14:12:56.411Z,4.90
2017-12-06T14:15:24.293Z,4.90
2017-12-06T14:17:51.821Z,5.00
2017-12-06T14:20:20.186Z,4.90
2017-12-06T14:22:47.935Z,5.00
2017-12-06T14:25:15.430Z,5.00
2017-12-06T14:27:42.929Z,4.90
2017-12-06T14:30:10.519Z,4.90
2017-12-06T14:32:38.005Z,4.90
2017-12-06T14:35:05.520Z,5.00
2017-12-06T14:37:33.048Z,4.90
2017-12-06T14:40:00.565Z,4.80
2017-12-06T14:42:28.092Z,4.80
2017-12-06T14:44:55.615Z,4.70
2017-12-06T14:47:24.055Z,4.80
2017-12-06T14:49:51.645Z,4.70
2017-12-06T14:52:19.189Z,4.70
2017-12-06T14:54:46.706Z,4.70
2017-12-06T14:57:14.393Z,4.70
2017-12-06T14:59:41.887Z,4.70
2017-12-06T15:02:09.410Z,4.60
2017-12-06T15:04:37.653Z,4.60
2017-12-06T15:07:05.161Z,4.60
2017-12-06T15:09:32.672Z,4.60
2017-12-06T15:12:00.922Z,4.60
2017-12-06T15:14:28.642Z,4.60
2017-12-06T15:16:56.172Z,4.60
2017-12-06T15:19:23.867Z,4.50
2017-12-06T15:21:51.392Z,4.50
2017-12-06T15:24:18.913Z,4.50
2017-12-06T15:26:47.237Z,4.60
2017-12-06T15:29:14.733Z,4.50
2017-12-06T15:31:42.207Z,4.50
2017-12-06T15:34:09.704Z,4.70
2017-12-06T15:36:37.177Z,4.60
2017-12-06T15:39:04.704Z,4.60
2017-12-06T15:41:33.072Z,4.60
2017-12-06T15:44:00.551Z,4.70
2017-12-06T15:46:28.081Z,4.50
2017-12-06T15:48:55.596Z,4.40
2017-12-06T15:51:23.872Z,4.40
2017-12-06T15:53:51.467Z,4.40
2017-12-06T15:56:19.743Z,4.40
2017-12-06T15:58:47.291Z,4.40
2017-12-06T16:01:14.785Z,4.30
2017-12-06T16:03:42.281Z,4.30
2017-12-06T16:06:09.773Z,4.20
2017-12-06T16:08:37.289Z,4.40
2017-12-06T16:11:04.794Z,4.40
2017-12-06T16:13:33.048Z,4.40
2017-12-06T16:16:00.550Z,4.40
2017-12-06T16:18:28.033Z,4.40
2017-12-06T16:20:55.534Z,4.40
2017-12-06T16:23:23.778Z,4.40
2017-12-06T16:25:51.267Z,4.40
2017-12-06T16:28:18.770Z,4.40
2017-12-06T16:30:46.397Z,4.30
2017-12-06T16:33:14.795Z,4.30
2017-12-06T16:35:54.872Z,4.30
2017-12-06T16:38:22.452Z,4.20
2017-12-06T16:40:50.840Z,4.00
2017-12-06T16:43:18.375Z,4.20
2017-12-06T16:45:45.908Z,4.20
2017-12-06T16:48:13.534Z,4.20
2017-12-06T16:50:41.047Z,4.10
2017-12-06T16:53:08.553Z,4.00
2017-12-06T16:55:36.126Z,4.00
2017-12-06T16:58:03.764Z,3.80
2017-12-06T17:00:32.079Z,4.00
2017-12-06T17:03:00.334Z,4.10
2017-12-06T17:05:28.669Z,4.20
2017-12-06T17:07:57.017Z,4.10
2017-12-06T17:10:24.520Z,4.10
2017-12-06T17:12:52.259Z,4.00
2017-12-06T17:15:19.854Z,4.00
2017-12-06T17:17:47.357Z,4.00
2017-12-06T17:20:14.918Z,4.10
2017-12-06T17:22:43.155Z,4.20
2017-12-06T17:25:10.690Z,4.20
2017-12-06T17:27:38.217Z,4.00
2017-12-06T17:30:17.876Z,3.90
2017-12-06T17:32:45.366Z,3.90
2017-12-06T17:35:13.670Z,3.90
2017-12-06T17:37:41.184Z,3.90
2017-12-06T17:40:08.696Z,4.00
2017-12-06T17:42:36.229Z,4.10
2017-12-06T17:45:03.767Z,4.00
2017-12-06T17:47:31.380Z,4.10
2017-12-06T17:50:10.711Z,4.10
2017-12-06T17:52:39.230Z,3.90
2017-12-06T17:55:06.714Z,3.90
2017-12-06T17:57:35.079Z,3.80
2017-12-06T18:00:02.570Z,3.70
2017-12-06T18:02:30.064Z,3.80
2017-12-06T18:04:57.600Z,3.90
2017-12-06T18:07:25.093Z,3.90
2017-12-06T18:09:53.353Z,4.00
2017-12-06T18:12:20.903Z,4.00
2017-12-06T18:14:48.403Z,4.00
2017-12-06T18:17:15.896Z,4.00
2017-12-06T18:19:43.446Z,4.00
2017-12-06T18:22:10.922Z,4.10
2017-12-06T18:24:38.416Z,4.20
2017-12-06T18:27:05.989Z,4.10
2017-12-06T18:29:33.458Z,3.90
2017-12-06T18:32:01.099Z,4.00
2017-12-06T18:34:29.356Z,4.00
2017-12-06T18:36:56.987Z,4.00
2017-12-06T18:39:25.398Z,4.00
2017-12-06T18:41:53.692Z,3.90
2017-12-06T18:44:22.057Z,3.90
2017-12-06T18:46:49.760Z,3.90
2017-12-06T18:49:18.025Z,3.90
2017-12-06T18:51:45.555Z,3.90
2017-12-06T18:54:13.067Z,3.70
2017-12-06T18:56:41.326Z,3.60
2017-12-06T18:59:09.030Z,3.60
2017-12-06T19:01:37.284Z,3.70
2017-12-06T19:04:04.759Z,3.40
2017-12-06T19:06:32.270Z,3.70
2017-12-06T19:08:59.756Z,3.70
2017-12-06T19:11:27.286Z,3.70
2017-12-06T19:13:54.902Z,3.60
2017-12-06T19:16:22.457Z,3.60
2017-12-06T19:18:51.131Z,3.40
2017-12-06T19:21:18.790Z,3.40
2017-12-06T19:23:46.317Z,3.50
2017-12-06T19:26:13.853Z,3.60
2017-12-06T19:28:41.374Z,3.70
2017-12-06T19:31:08.867Z,3.50
2017-12-06T19:33:36.373Z,3.50
2017-12-06T19:36:04.653Z,3.70
2017-12-06T19:38:32.175Z,3.70
2017-12-06T19:41:00.431Z,3.70
2017-12-06T19:43:27.947Z,3.70
2017-12-06T19:45:55.422Z,3.80
2017-12-06T19:48:23.018Z,3.60
2017-12-06T19:50:51.270Z,3.70
2017-12-06T19:53:18.790Z,3.70
2017-12-06T19:55:46.367Z,3.80
2017-12-06T19:58:14.023Z,3.80
2017-12-06T20:00:41.527Z,3.80
2017-12-06T20:03:09.098Z,3.80
2017-12-06T20:05:36.642Z,3.80
2017-12-06T20:08:04.902Z,3.90
2017-12-06T20:10:32.416Z,3.80
2017-12-06T20:13:00.675Z,4.10
2017-12-06T20:15:28.952Z,3.90
2017-12-06T20:17:56.458Z,3.90
2017-12-06T20:20:24.165Z,3.90
2017-12-06T20:22:51.675Z,3.90
2017-12-06T20:25:19.985Z,3.80
2017-12-06T20:27:47.517Z,3.70
2017-12-06T20:30:15.035Z,3.90
2017-12-06T20:32:42.533Z,3.90
2017-12-06T20:35:10.018Z,3.90
2017-12-06T20:37:38.309Z,3.80
2017-12-06T20:40:05.818Z,3.80
2017-12-06T20:42:34.100Z,3.80
2017-12-06T20:45:03.324Z,3.70
2017-12-06T20:47:30.854Z,3.70
2017-12-06T20:49:58.362Z,3.70
2017-12-06T20:52:25.889Z,3.70
2017-12-06T20:54:54.205Z,3.70
2017-12-06T20:57:22.218Z,3.70
2017-12-06T20:59:49.886Z,3.70
2017-12-06T21:02:18.163Z,3.70
2017-12-06T21:04:45.693Z,3.80
2017-12-06T21:07:13.954Z,3.60
2017-12-06T21:09:41.454Z,3.60
2017-12-06T21:12:08.929Z,3.70
2017-12-06T21:14:36.433Z,3.50
2017-12-06T21:17:04.821Z,3.40
2017-12-06T21:19:32.317Z,3.40
2017-12-06T21:21:59.850Z,3.30
2017-12-06T21:24:27.333Z,3.30
2017-12-06T21:26:54.831Z,3.40
2017-12-06T21:29:22.360Z,3.40
2017-12-06T21:31:49.840Z,3.40
2017-12-06T21:34:18.216Z,3.30
2017-12-06T21:36:45.772Z,3.20
2017-12-06T21:39:13.283Z,3.30
2017-12-06T21:41:41.557Z,3.10
2017-12-06T21:44:09.048Z,3.30
2017-12-06T21:46:36.547Z,3.00
2017-12-06T21:49:04.038Z,3.20
2017-12-06T21:51:31.521Z,3.20
2017-12-06T21:53:59.011Z,3.20
2017-12-06T21:56:27.263Z,3.30
2017-12-06T21:58:54.769Z,3.30
2017-12-06T22:01:22.240Z,3.20
2017-12-06T22:03:50.583Z,3.00
2017-12-06T22:06:18.895Z,2.80
2017-12-06T22:08:47.192Z,2.70
2017-12-06T22:11:14.672Z,2.70
2017-12-06T22:13:42.970Z,2.60
2017-12-06T22:16:10.461Z,2.60
2017-12-06T22:18:38.722Z,2.50
2017-12-06T22:21:06.241Z,2.40
2017-12-06T22:23:34.488Z,2.30
2017-12-06T22:26:01.978Z,2.30
2017-12-06T22:28:29.488Z,2.40
2017-12-06T22:30:56.984Z,2.50
2017-12-06T22:33:25.255Z,2.40
2017-12-06T22:35:52.767Z,2.40
2017-12-06T22:38:20.261Z,2.40
2017-12-06T22:40:47.762Z,2.50
2017-12-06T22:43:16.057Z,2.70
2017-12-06T22:45:44.450Z,2.60
2017-12-06T22:48:11.975Z,2.70
2017-12-06T22:50:39.534Z,2.70
2017-12-06T22:53:07.788Z,2.70
2017-12-06T22:55:35.294Z,2.70
2017-12-06T22:58:02.781Z,2.60
2017-12-06T23:00:30.300Z,2.50
2017-12-06T23:02:58.551Z,2.50
2017-12-06T23:05:26.810Z,2.50
2017-12-06T23:07:54.298Z,2.50
2017-12-06T23:10:21.796Z,2.60
2017-12-06T23:12:50.217Z,2.60
2017-12-06T23:15:17.829Z,2.60
2017-12-06T23:17:45.433Z,2.30
2017-12-06T23:20:13.700Z,2.50
2017-12-06T23:22:41.188Z,2.50
2017-12-06T23:25:08.706Z,2.70
2017-12-06T23:27:36.986Z,2.80
2017-12-06T23:32:43.543Z,2.90
2017-12-06T23:35:11.789Z,2.90
2017-12-06T23:37:39.319Z,2.90
2017-12-06T23:40:07.586Z,2.70
2017-12-06T23:42:35.086Z,2.90
2017-12-06T23:45:02.693Z,2.70
2017-12-06T23:47:30.958Z,2.60
2017-12-06T23:49:58.444Z,2.70
2017-12-06T23:52:25.933Z,2.60
2017-12-06T23:54:54.196Z,2.40
2017-12-06T23:57:21.721Z,2.40
2017-12-06T23:59:49.445Z,2.50
